Terminal Aerodrome Forecast
Issued by NWS Jackson, MS

Home | Current Version | Previous Version | Text Only | Print | Product List | Glossary On
Versions: 1 2 3 4 5 6 7 8 9 10 11 12 13 14
000
FTUS44 KJAN 301157 AAB
TAFGWO
TAF AMD
KGWO 301157Z 3012/0112 22003KT 6SM BR BKN060
     FM301330 34002KT P6SM SCT050
     FM301800 31006KT P6SM SCT050=

USA.gov is the U.S. government's official web portal to all federal, state and local government web resources and services.